sensor_id;sensor_type;location;lat;lon;timestamp;pressure;altitude;pressure_sealevel;temperature
64600;BMP280;6553;48.412;9.514;2022-08-21T00:02:20;72107.22;;;24.04
64600;BMP280;6553;48.412;9.514;2022-08-21T00:04:47;72114.38;;;24.06
64600;BMP280;6553;48.412;9.514;2022-08-21T00:07:13;72106.13;;;24.03
64600;BMP280;6553;48.412;9.514;2022-08-21T00:09:39;72109.06;;;24.01
64600;BMP280;6553;48.412;9.514;2022-08-21T00:12:07;72109.06;;;24.01
64600;BMP280;6553;48.412;9.514;2022-08-21T00:14:33;72108.94;;;24.03
64600;BMP280;6553;48.412;9.514;2022-08-21T00:17:01;72106.81;;;24.01
64600;BMP280;6553;48.412;9.514;2022-08-21T00:19:27;72107.47;;;23.99
64600;BMP280;6553;48.412;9.514;2022-08-21T00:21:54;72107.47;;;23.99
64600;BMP280;6553;48.412;9.514;2022-08-21T00:24:21;72111.19;;;24.03
64600;BMP280;6553;48.412;9.514;2022-08-21T00:26:48;72110.66;;;24.02
64600;BMP280;6553;48.412;9.514;2022-08-21T00:29:14;72105.09;;;24.02
64600;BMP280;6553;48.412;9.514;2022-08-21T00:31:42;72101.88;;;23.99
64600;BMP280;6553;48.412;9.514;2022-08-21T00:34:08;72114.13;;;24.00
64600;BMP280;6553;48.412;9.514;2022-08-21T00:36:35;72108.00;;;24.00
64600;BMP280;6553;48.412;9.514;2022-08-21T00:39:03;72108.00;;;24.00
64600;BMP280;6553;48.412;9.514;2022-08-21T00:41:30;72105.22;;;24.00
64600;BMP280;6553;48.412;9.514;2022-08-21T00:43:56;72103.63;;;23.98
64600;BMP280;6553;48.412;9.514;2022-08-21T00:46:22;72104.66;;;23.99
64600;BMP280;6553;48.412;9.514;2022-08-21T00:48:48;72104.81;;;23.97
64600;BMP280;6553;48.412;9.514;2022-08-21T00:51:23;72106.91;;;23.99
64600;BMP280;6553;48.412;9.514;2022-08-21T00:53:59;72099.78;;;23.97
64600;BMP280;6553;48.412;9.514;2022-08-21T00:56:27;72102.69;;;23.95
64600;BMP280;6553;48.412;9.514;2022-08-21T00:58:57;72106.41;;;23.98
64600;BMP280;6553;48.412;9.514;2022-08-21T01:01:24;72104.81;;;23.97
64600;BMP280;6553;48.412;9.514;2022-08-21T01:03:50;72101.50;;;23.96
64600;BMP280;6553;48.412;9.514;2022-08-21T01:06:16;72097.91;;;23.90
64600;BMP280;6553;48.412;9.514;2022-08-21T01:08:42;72098.69;;;23.96
64600;BMP280;6553;48.412;9.514;2022-08-21T01:11:08;72103.75;;;23.96
64600;BMP280;6553;48.412;9.514;2022-08-21T01:13:36;72096.56;;;23.94
64600;BMP280;6553;48.412;9.514;2022-08-21T01:16:09;72102.03;;;23.97
64600;BMP280;6553;48.412;9.514;2022-08-21T01:18:35;72091.41;;;23.87
64600;BMP280;6553;48.412;9.514;2022-08-21T01:21:17;72098.31;;;23.93
64600;BMP280;6553;48.412;9.514;2022-08-21T01:23:48;72097.09;;;23.95
64600;BMP280;6553;48.412;9.514;2022-08-21T01:26:20;72101.63;;;23.94
64600;BMP280;6553;48.412;9.514;2022-08-21T01:29:14;72098.84;;;23.94
64600;BMP280;6553;48.412;9.514;2022-08-21T01:31:42;72096.69;;;23.92
64600;BMP280;6553;48.412;9.514;2022-08-21T01:34:11;72096.69;;;23.92
64600;BMP280;6553;48.412;9.514;2022-08-21T01:36:37;72102.81;;;23.92
64600;BMP280;6553;48.412;9.514;2022-08-21T01:39:05;72095.75;;;23.88
64600;BMP280;6553;48.412;9.514;2022-08-21T01:41:31;72096.84;;;23.89
64600;BMP280;6553;48.412;9.514;2022-08-21T01:43:57;72093.50;;;23.89
64600;BMP280;6553;48.412;9.514;2022-08-21T01:46:23;72089.00;;;23.90
64600;BMP280;6553;48.412;9.514;2022-08-21T01:48:48;72090.72;;;23.89
64600;BMP280;6553;48.412;9.514;2022-08-21T01:51:15;72094.56;;;23.90
64600;BMP280;6553;48.412;9.514;2022-08-21T01:53:41;72097.38;;;23.90
64600;BMP280;6553;48.412;9.514;2022-08-21T01:56:12;72094.56;;;23.90
64600;BMP280;6553;48.412;9.514;2022-08-21T01:58:43;72091.91;;;23.87
64600;BMP280;6553;48.412;9.514;2022-08-21T02:01:09;72098.53;;;23.88
64600;BMP280;6553;48.412;9.514;2022-08-21T02:03:36;72098.53;;;23.88
64600;BMP280;6553;48.412;9.514;2022-08-21T02:06:04;72088.06;;;23.86
64600;BMP280;6553;48.412;9.514;2022-08-21T02:08:31;72095.25;;;23.88
64600;BMP280;6553;48.412;9.514;2022-08-21T02:10:56;72088.19;;;23.84
64600;BMP280;6553;48.412;9.514;2022-08-21T02:13:22;72094.69;;;23.87
64600;BMP280;6553;48.412;9.514;2022-08-21T02:15:48;72089.25;;;23.85
64600;BMP280;6553;48.412;9.514;2022-08-21T02:18:14;72089.78;;;23.85
64600;BMP280;6553;48.412;9.514;2022-08-21T02:20:46;72094.69;;;23.87
64600;BMP280;6553;48.412;9.514;2022-08-21T02:23:13;72091.41;;;23.87
64600;BMP280;6553;48.412;9.514;2022-08-21T02:25:40;72087.00;;;23.85
64600;BMP280;6553;48.412;9.514;2022-08-21T02:28:10;72091.53;;;23.84
64600;BMP280;6553;48.412;9.514;2022-08-21T02:30:42;72088.84;;;23.82
64600;BMP280;6553;48.412;9.514;2022-08-21T02:33:09;72092.72;;;23.83
64600;BMP280;6553;48.412;9.514;2022-08-21T02:35:38;72092.72;;;23.83
64600;BMP280;6553;48.412;9.514;2022-08-21T02:38:08;72089.94;;;23.83
64600;BMP280;6553;48.412;9.514;2022-08-21T02:40:39;72088.19;;;23.84
64600;BMP280;6553;48.412;9.514;2022-08-21T02:43:07;72087.69;;;23.83
64600;BMP280;6553;48.412;9.514;2022-08-21T02:45:34;72087.69;;;23.83
64600;BMP280;6553;48.412;9.514;2022-08-21T02:48:09;72082.09;;;23.83
64600;BMP280;6553;48.412;9.514;2022-08-21T02:50:46;72088.84;;;23.82
64600;BMP280;6553;48.412;9.514;2022-08-21T02:53:14;72088.31;;;23.81
64600;BMP280;6553;48.412;9.514;2022-08-21T02:55:44;72083.41;;;23.79
64600;BMP280;6553;48.412;9.514;2022-08-21T02:58:11;72087.69;;;23.83
64600;BMP280;6553;48.412;9.514;2022-08-21T03:00:38;72091.09;;;23.81
64600;BMP280;6553;48.412;9.514;2022-08-21T03:03:05;72088.84;;;23.82
64600;BMP280;6553;48.412;9.514;2022-08-21T03:05:33;72085.53;;;23.81
64600;BMP280;6553;48.412;9.514;2022-08-21T03:08:04;72080.63;;;23.79
64600;BMP280;6553;48.412;9.514;2022-08-21T03:10:30;72084.06;;;23.77
64600;BMP280;6553;48.412;9.514;2022-08-21T03:12:56;72081.41;;;23.75
64600;BMP280;6553;48.412;9.514;2022-08-21T03:15:23;72079.69;;;23.76
64600;BMP280;6553;48.412;9.514;2022-08-21T03:17:50;72088.44;;;23.79
64600;BMP280;6553;48.412;9.514;2022-08-21T03:20:20;72081.81;;;23.78
64600;BMP280;6553;48.412;9.514;2022-08-21T03:22:47;72083.03;;;23.76
64600;BMP280;6553;48.412;9.514;2022-08-21T03:25:13;72081.81;;;23.78
64600;BMP280;6553;48.412;9.514;2022-08-21T03:27:39;72085.25;;;23.76
64600;BMP280;6553;48.412;9.514;2022-08-21T03:30:08;72080.75;;;23.77
64600;BMP280;6553;48.412;9.514;2022-08-21T03:32:34;72082.47;;;23.76
64600;BMP280;6553;48.412;9.514;2022-08-21T03:35:03;72083.53;;;23.77
64600;BMP280;6553;48.412;9.514;2022-08-21T03:37:29;72066.28;;;23.66
64600;BMP280;6553;48.412;9.514;2022-08-21T03:39:55;72081.41;;;23.75
64600;BMP280;6553;48.412;9.514;2022-08-21T03:42:22;72079.69;;;23.76
64600;BMP280;6553;48.412;9.514;2022-08-21T03:44:48;72081.94;;;23.75
64600;BMP280;6553;48.412;9.514;2022-08-21T03:47:14;72081.41;;;23.75
64600;BMP280;6553;48.412;9.514;2022-08-21T03:49:40;72077.03;;;23.73
64600;BMP280;6553;48.412;9.514;2022-08-21T03:52:07;72076.38;;;23.75
64600;BMP280;6553;48.412;9.514;2022-08-21T03:54:33;72079.16;;;23.75
64600;BMP280;6553;48.412;9.514;2022-08-21T03:56:59;72078.63;;;23.75
64600;BMP280;6553;48.412;9.514;2022-08-21T03:59:25;72077.69;;;23.71
64600;BMP280;6553;48.412;9.514;2022-08-21T04:01:57;72072.09;;;23.71
64600;BMP280;6553;48.412;9.514;2022-08-21T04:04:23;72077.03;;;23.73
64600;BMP280;6553;48.412;9.514;2022-08-21T04:06:49;72077.03;;;23.73
64600;BMP280;6553;48.412;9.514;2022-08-21T04:09:16;72075.97;;;23.72
64600;BMP280;6553;48.412;9.514;2022-08-21T04:11:43;72074.91;;;23.71
64600;BMP280;6553;48.412;9.514;2022-08-21T04:14:09;72074.34;;;23.71
64600;BMP280;6553;48.412;9.514;2022-08-21T04:16:35;72073.31;;;23.70
64600;BMP280;6553;48.412;9.514;2022-08-21T04:19:00;72079.41;;;23.70
64600;BMP280;6553;48.412;9.514;2022-08-21T04:21:27;72076.63;;;23.70
64600;BMP280;6553;48.412;9.514;2022-08-21T04:23:57;72076.63;;;23.70
64600;BMP280;6553;48.412;9.514;2022-08-21T04:26:23;72071.56;;;23.71
64600;BMP280;6553;48.412;9.514;2022-08-21T04:28:49;72074.50;;;23.68
64600;BMP280;6553;48.412;9.514;2022-08-21T04:31:15;72070.63;;;23.67
64600;BMP280;6553;48.412;9.514;2022-08-21T04:33:40;72068.00;;;23.64
64600;BMP280;6553;48.412;9.514;2022-08-21T04:36:07;72070.00;;;23.69
64600;BMP280;6553;48.412;9.514;2022-08-21T04:38:33;72073.44;;;23.67
64600;BMP280;6553;48.412;9.514;2022-08-21T04:40:59;72068.38;;;23.67
64600;BMP280;6553;48.412;9.514;2022-08-21T04:43:25;72073.44;;;23.67
64600;BMP280;6553;48.412;9.514;2022-08-21T04:45:52;72073.44;;;23.67
64600;BMP280;6553;48.412;9.514;2022-08-21T04:48:21;72073.44;;;23.67
64600;BMP280;6553;48.412;9.514;2022-08-21T04:51:08;72070.13;;;23.67
64600;BMP280;6553;48.412;9.514;2022-08-21T04:56:11;72070.78;;;23.64
64600;BMP280;6553;48.412;9.514;2022-08-21T04:58:39;72067.47;;;23.64
64600;BMP280;6553;48.412;9.514;2022-08-21T05:01:13;72075.69;;;23.67
64600;BMP280;6553;48.412;9.514;2022-08-21T05:03:41;72068.53;;;23.65
64600;BMP280;6553;48.412;9.514;2022-08-21T05:06:10;72062.97;;;23.65
64600;BMP280;6553;48.412;9.514;2022-08-21T05:08:39;72064.66;;;23.64
64600;BMP280;6553;48.412;9.514;2022-08-21T05:11:06;72064.66;;;23.64
64600;BMP280;6553;48.412;9.514;2022-08-21T05:13:32;72064.13;;;23.63
64600;BMP280;6553;48.412;9.514;2022-08-21T05:15:58;72060.31;;;23.63
64600;BMP280;6553;48.412;9.514;2022-08-21T05:18:24;72068.13;;;23.62
64600;BMP280;6553;48.412;9.514;2022-08-21T05:20:50;72063.59;;;23.63
64600;BMP280;6553;48.412;9.514;2022-08-21T05:23:16;72061.47;;;23.61
64600;BMP280;6553;48.412;9.514;2022-08-21T05:25:43;72068.13;;;23.62
64600;BMP280;6553;48.412;9.514;2022-08-21T05:28:10;72064.66;;;23.64
64600;BMP280;6553;48.412;9.514;2022-08-21T05:30:37;72064.81;;;23.61
64600;BMP280;6553;48.412;9.514;2022-08-21T05:33:05;72068.13;;;23.62
64600;BMP280;6553;48.412;9.514;2022-08-21T05:35:32;72064.28;;;23.61
64600;BMP280;6553;48.412;9.514;2022-08-21T05:37:59;72061.47;;;23.61
64600;BMP280;6553;48.412;9.514;2022-08-21T05:40:26;72063.72;;;23.60
64600;BMP280;6553;48.412;9.514;2022-08-21T05:42:54;72062.78;;;23.57
64600;BMP280;6553;48.412;9.514;2022-08-21T05:45:22;72052.72;;;23.58
64600;BMP280;6553;48.412;9.514;2022-08-21T05:47:48;72062.16;;;23.59
64600;BMP280;6553;48.412;9.514;2022-08-21T05:50:14;72061.63;;;23.58
64600;BMP280;6553;48.412;9.514;2022-08-21T05:52:40;72061.63;;;23.58
64600;BMP280;6553;48.412;9.514;2022-08-21T05:55:06;72053.38;;;23.56
64600;BMP280;6553;48.412;9.514;2022-08-21T05:57:32;72065.59;;;23.57
64600;BMP280;6553;48.412;9.514;2022-08-21T05:59:58;72058.31;;;23.58
64600;BMP280;6553;48.412;9.514;2022-08-21T06:02:24;72060.94;;;23.60
64600;BMP280;6553;48.412;9.514;2022-08-21T06:04:49;72058.31;;;23.58
64600;BMP280;6553;48.412;9.514;2022-08-21T06:07:15;72061.47;;;23.61
64600;BMP280;6553;48.412;9.514;2022-08-21T06:09:41;72071.94;;;23.63
64600;BMP280;6553;48.412;9.514;2022-08-21T06:12:11;72056.59;;;23.59
64600;BMP280;6553;48.412;9.514;2022-08-21T06:14:40;72064.28;;;23.61
64600;BMP280;6553;48.412;9.514;2022-08-21T06:17:11;72064.81;;;23.61
64600;BMP280;6553;48.412;9.514;2022-08-21T06:19:38;72062.66;;;23.59
64600;BMP280;6553;48.412;9.514;2022-08-21T06:22:04;72058.84;;;23.58
64600;BMP280;6553;48.412;9.514;2022-08-21T06:24:31;72062.16;;;23.59
64600;BMP280;6553;48.412;9.514;2022-08-21T06:26:57;72067.75;;;23.59
64600;BMP280;6553;48.412;9.514;2022-08-21T06:29:23;72059.38;;;23.59
64600;BMP280;6553;48.412;9.514;2022-08-21T06:31:51;72063.19;;;23.60
64600;BMP280;6553;48.412;9.514;2022-08-21T06:34:18;72062.16;;;23.59
64600;BMP280;6553;48.412;9.514;2022-08-21T06:36:44;72062.66;;;23.59
64600;BMP280;6553;48.412;9.514;2022-08-21T06:39:10;72060.94;;;23.60
64600;BMP280;6553;48.412;9.514;2022-08-21T06:41:36;72062.16;;;23.59
64600;BMP280;6553;48.412;9.514;2022-08-21T06:44:02;72065.03;;;23.56
64600;BMP280;6553;48.412;9.514;2022-08-21T06:46:29;72062.16;;;23.59
64600;BMP280;6553;48.412;9.514;2022-08-21T06:48:56;72058.31;;;23.58
64600;BMP280;6553;48.412;9.514;2022-08-21T06:51:23;72060.94;;;23.60
64600;BMP280;6553;48.412;9.514;2022-08-21T06:53:49;72066.53;;;23.60
64600;BMP280;6553;48.412;9.514;2022-08-21T06:56:15;72065.34;;;23.62
64600;BMP280;6553;48.412;9.514;2022-08-21T06:58:40;72058.16;;;23.60
64600;BMP280;6553;48.412;9.514;2022-08-21T07:01:06;72065.75;;;23.65
64600;BMP280;6553;48.412;9.514;2022-08-21T07:03:39;72073.72;;;23.62
64600;BMP280;6553;48.412;9.514;2022-08-21T07:06:07;72064.66;;;23.64
64600;BMP280;6553;48.412;9.514;2022-08-21T07:08:35;72065.75;;;23.65
64600;BMP280;6553;48.412;9.514;2022-08-21T07:11:05;72065.88;;;23.63
64600;BMP280;6553;48.412;9.514;2022-08-21T07:13:32;72071.19;;;23.67
64600;BMP280;6553;48.412;9.514;2022-08-21T07:15:58;72066.53;;;23.60
64600;BMP280;6553;48.412;9.514;2022-08-21T07:18:24;72078.75;;;23.72
64600;BMP280;6553;48.412;9.514;2022-08-21T07:20:50;72078.75;;;23.72
64600;BMP280;6553;48.412;9.514;2022-08-21T07:23:30;72080.88;;;23.74
64600;BMP280;6553;48.412;9.514;2022-08-21T07:25:56;72080.88;;;23.74
64600;BMP280;6553;48.412;9.514;2022-08-21T07:28:22;72075.84;;;23.75
64600;BMP280;6553;48.412;9.514;2022-08-21T07:30:54;72075.84;;;23.75
64600;BMP280;6553;48.412;9.514;2022-08-21T07:33:21;72078.50;;;23.77
64600;BMP280;6553;48.412;9.514;2022-08-21T07:35:46;72079.00;;;23.78
64600;BMP280;6553;48.412;9.514;2022-08-21T07:38:12;72087.25;;;23.80
64600;BMP280;6553;48.412;9.514;2022-08-21T07:40:38;72086.19;;;23.79
64600;BMP280;6553;48.412;9.514;2022-08-21T07:43:04;72078.25;;;23.82
64600;BMP280;6553;48.412;9.514;2022-08-21T07:45:31;72089.25;;;23.85
64600;BMP280;6553;48.412;9.514;2022-08-21T07:47:56;72095.34;;;23.85
64600;BMP280;6553;48.412;9.514;2022-08-21T07:50:23;72089.66;;;23.88
64600;BMP280;6553;48.412;9.514;2022-08-21T07:52:48;72095.25;;;23.88
64600;BMP280;6553;48.412;9.514;2022-08-21T07:55:18;72096.16;;;23.91
64600;BMP280;6553;48.412;9.514;2022-08-21T07:57:44;72102.16;;;23.94
64600;BMP280;6553;48.412;9.514;2022-08-21T08:00:19;72100.81;;;23.98
64600;BMP280;6553;48.412;9.514;2022-08-21T08:02:49;72108.00;;;24.00
64600;BMP280;6553;48.412;9.514;2022-08-21T08:05:19;72106.28;;;24.01
64600;BMP280;6553;48.412;9.514;2022-08-21T08:07:45;72110.66;;;24.02
64600;BMP280;6553;48.412;9.514;2022-08-21T08:10:11;72104.56;;;24.02
64600;BMP280;6553;48.412;9.514;2022-08-21T08:12:40;72110.66;;;24.02
64600;BMP280;6553;48.412;9.514;2022-08-21T08:15:14;72112.25;;;24.04
64600;BMP280;6553;48.412;9.514;2022-08-21T08:17:40;72112.38;;;24.01
64600;BMP280;6553;48.412;9.514;2022-08-21T08:20:08;72102.97;;;24.00
64600;BMP280;6553;48.412;9.514;2022-08-21T08:22:36;72101.88;;;23.99
64600;BMP280;6553;48.412;9.514;2022-08-21T08:25:04;72104.81;;;23.97
64600;BMP280;6553;48.412;9.514;2022-08-21T08:27:30;72103.06;;;23.98
64600;BMP280;6553;48.412;9.514;2022-08-21T08:29:56;72102.97;;;24.00
64600;BMP280;6553;48.412;9.514;2022-08-21T08:32:23;72107.47;;;23.99
64600;BMP280;6553;48.412;9.514;2022-08-21T08:34:49;72104.00;;;24.01
64600;BMP280;6553;48.412;9.514;2022-08-21T08:37:18;72107.22;;;24.04
64600;BMP280;6553;48.412;9.514;2022-08-21T08:39:45;72109.59;;;24.01
64600;BMP280;6553;48.412;9.514;2022-08-21T08:42:17;72112.13;;;24.06
64600;BMP280;6553;48.412;9.514;2022-08-21T08:44:46;72112.25;;;24.04
64600;BMP280;6553;48.412;9.514;2022-08-21T08:47:18;72104.56;;;24.02
64600;BMP280;6553;48.412;9.514;2022-08-21T08:50:20;72115.28;;;24.09
64600;BMP280;6553;48.412;9.514;2022-08-21T08:53:05;72115.44;;;24.07
64600;BMP280;6553;48.412;9.514;2022-08-21T08:55:39;72110.25;;;24.10
64600;BMP280;6553;48.412;9.514;2022-08-21T08:58:09;72115.84;;;24.10
64600;BMP280;6553;48.412;9.514;2022-08-21T09:00:38;72111.84;;;24.11
64600;BMP280;6553;48.412;9.514;2022-08-21T09:03:04;72117.56;;;24.09
64600;BMP280;6553;48.412;9.514;2022-08-21T09:05:46;72116.38;;;24.10
64600;BMP280;6553;48.412;9.514;2022-08-21T09:14:32;72120.09;;;24.14
64600;BMP280;6553;48.412;9.514;2022-08-21T09:19:56;72120.09;;;24.14
64600;BMP280;6553;48.412;9.514;2022-08-21T09:27:45;72121.16;;;24.15
64600;BMP280;6553;48.412;9.514;2022-08-21T09:30:12;72126.59;;;24.17
64600;BMP280;6553;48.412;9.514;2022-08-21T09:32:39;72125.00;;;24.16
64600;BMP280;6553;48.412;9.514;2022-08-21T09:35:21;72136.69;;;24.27
64600;BMP280;6553;48.412;9.514;2022-08-21T09:38:00;72132.31;;;24.25
64600;BMP280;6553;48.412;9.514;2022-08-21T09:40:43;72126.34;;;24.22
64600;BMP280;6553;48.412;9.514;2022-08-21T09:45:40;72123.28;;;24.17
64600;BMP280;6553;48.412;9.514;2022-08-21T09:48:23;72122.63;;;24.19
64600;BMP280;6553;48.412;9.514;2022-08-21T09:50:51;72120.50;;;24.17
64600;BMP280;6553;48.412;9.514;2022-08-21T09:53:27;72121.69;;;24.15
64600;BMP280;6553;48.412;9.514;2022-08-21T09:56:05;72118.91;;;24.15
64600;BMP280;6553;48.412;9.514;2022-08-21T09:58:51;72125.13;;;24.13
64600;BMP280;6553;48.412;9.514;2022-08-21T10:01:25;72122.88;;;24.14
64600;BMP280;6553;48.412;9.514;2022-08-21T10:04:07;72118.50;;;24.12
64600;BMP280;6553;48.412;9.514;2022-08-21T10:06:34;72112.38;;;24.12
64600;BMP280;6553;48.412;9.514;2022-08-21T10:09:11;72117.84;;;24.14
64600;BMP280;6553;48.412;9.514;2022-08-21T10:11:39;72119.56;;;24.13
64600;BMP280;6553;48.412;9.514;2022-08-21T10:17:44;72116.91;;;24.11
64600;BMP280;6553;48.412;9.514;2022-08-21T10:23:45;72114.53;;;24.14
64600;BMP280;6553;48.412;9.514;2022-08-21T10:35:33;72121.84;;;24.13
64600;BMP280;6553;48.412;9.514;2022-08-21T10:53:34;72117.84;;;24.14
64600;BMP280;6553;48.412;9.514;2022-08-21T10:56:19;72121.56;;;24.18
64600;BMP280;6553;48.412;9.514;2022-08-21T10:59:11;72123.28;;;24.17
64600;BMP280;6553;48.412;9.514;2022-08-21T11:01:54;72121.16;;;24.15
64600;BMP280;6553;48.412;9.514;2022-08-21T11:07:33;72117.44;;;24.11
64600;BMP280;6553;48.412;9.514;2022-08-21T11:10:17;72117.31;;;24.14
64600;BMP280;6553;48.412;9.514;2022-08-21T11:13:14;72121.69;;;24.15
64600;BMP280;6553;48.412;9.514;2022-08-21T11:18:55;72122.22;;;24.16
64600;BMP280;6553;48.412;9.514;2022-08-21T11:30:08;72120.63;;;24.14
64600;BMP280;6553;48.412;9.514;2022-08-21T11:32:47;72121.16;;;24.15
64600;BMP280;6553;48.412;9.514;2022-08-21T11:35:38;72119.56;;;24.13
64600;BMP280;6553;48.412;9.514;2022-08-21T11:38:34;72120.63;;;24.14
64600;BMP280;6553;48.412;9.514;2022-08-21T11:41:20;72125.00;;;24.16
64600;BMP280;6553;48.412;9.514;2022-08-21T11:43:54;72127.25;;;24.15
64600;BMP280;6553;48.412;9.514;2022-08-21T11:46:48;72122.63;;;24.19
64600;BMP280;6553;48.412;9.514;2022-08-21T11:52:25;72131.53;;;24.19
64600;BMP280;6553;48.412;9.514;2022-08-21T12:00:17;72127.66;;;24.18
64600;BMP280;6553;48.412;9.514;2022-08-21T12:03:16;72131.38;;;24.22
64600;BMP280;6553;48.412;9.514;2022-08-21T12:05:56;72127.00;;;24.20
64600;BMP280;6553;48.412;9.514;2022-08-21T12:08:29;72126.88;;;24.23
64600;BMP280;6553;48.412;9.514;2022-08-21T12:11:24;72129.66;;;24.23
64600;BMP280;6553;48.412;9.514;2022-08-21T12:22:07;72131.81;;;24.25
64600;BMP280;6553;48.412;9.514;2022-08-21T12:24:48;72130.59;;;24.26
64600;BMP280;6553;48.412;9.514;2022-08-21T12:27:27;72127.94;;;24.24
64600;BMP280;6553;48.412;9.514;2022-08-21T12:29:59;72134.06;;;24.24
64600;BMP280;6553;48.412;9.514;2022-08-21T12:35:18;72131.81;;;24.25
64600;BMP280;6553;48.412;9.514;2022-08-21T12:37:58;72126.22;;;24.25
64600;BMP280;6553;48.412;9.514;2022-08-21T12:40:40;72138.44;;;24.26
64600;BMP280;6553;48.412;9.514;2022-08-21T12:43:15;72132.97;;;24.23
64600;BMP280;6553;48.412;9.514;2022-08-21T12:45:47;72131.38;;;24.22
64600;BMP280;6553;48.412;9.514;2022-08-21T12:51:14;72130.72;;;24.24
64600;BMP280;6553;48.412;9.514;2022-08-21T12:53:48;72134.06;;;24.24
64600;BMP280;6553;48.412;9.514;2022-08-21T12:56:24;72130.19;;;24.23
64600;BMP280;6553;48.412;9.514;2022-08-21T12:58:59;72132.97;;;24.23
64600;BMP280;6553;48.412;9.514;2022-08-21T13:01:45;72131.25;;;24.24
64600;BMP280;6553;48.412;9.514;2022-08-21T13:04:20;72137.38;;;24.25
64600;BMP280;6553;48.412;9.514;2022-08-21T13:06:52;72134.44;;;24.27
64600;BMP280;6553;48.412;9.514;2022-08-21T13:09:26;72135.53;;;24.28
64600;BMP280;6553;48.412;9.514;2022-08-21T13:11:53;72133.38;;;24.26
64600;BMP280;6553;48.412;9.514;2022-08-21T13:14:38;72133.38;;;24.26
64600;BMP280;6553;48.412;9.514;2022-08-21T13:17:06;72134.44;;;24.27
64600;BMP280;6553;48.412;9.514;2022-08-21T13:19:33;72137.78;;;24.28
64600;BMP280;6553;48.412;9.514;2022-08-21T13:22:01;72135.66;;;24.26
64600;BMP280;6553;48.412;9.514;2022-08-21T13:24:35;72133.78;;;24.29
64600;BMP280;6553;48.412;9.514;2022-08-21T13:27:03;72135.66;;;24.26
64600;BMP280;6553;48.412;9.514;2022-08-21T13:29:33;72133.78;;;24.29
64600;BMP280;6553;48.412;9.514;2022-08-21T13:32:05;72139.91;;;24.30
64600;BMP280;6553;48.412;9.514;2022-08-21T13:34:37;72139.91;;;24.30
64600;BMP280;6553;48.412;9.514;2022-08-21T13:37:08;72136.03;;;24.29
64600;BMP280;6553;48.412;9.514;2022-08-21T13:39:34;72136.69;;;24.27
64600;BMP280;6553;48.412;9.514;2022-08-21T13:42:04;72136.69;;;24.27
64600;BMP280;6553;48.412;9.514;2022-08-21T13:44:44;72139.38;;;24.29
64600;BMP280;6553;48.412;9.514;2022-08-21T13:47:15;72134.31;;;24.30
64600;BMP280;6553;48.412;9.514;2022-08-21T13:49:46;72137.13;;;24.30
64600;BMP280;6553;48.412;9.514;2022-08-21T13:52:22;72138.72;;;24.31
64600;BMP280;6553;48.412;9.514;2022-08-21T13:55:09;72136.56;;;24.29
64600;BMP280;6553;48.412;9.514;2022-08-21T13:57:37;72137.78;;;24.28
64600;BMP280;6553;48.412;9.514;2022-08-21T14:00:18;72136.03;;;24.29
64600;BMP280;6553;48.412;9.514;2022-08-21T14:02:50;72133.78;;;24.29
64600;BMP280;6553;48.412;9.514;2022-08-21T14:05:28;72132.72;;;24.28
64600;BMP280;6553;48.412;9.514;2022-08-21T14:08:08;72134.44;;;24.27
64600;BMP280;6553;48.412;9.514;2022-08-21T14:10:49;72140.56;;;24.28
64600;BMP280;6553;48.412;9.514;2022-08-21T14:13:48;72131.13;;;24.27
64600;BMP280;6553;48.412;9.514;2022-08-21T14:18:53;72123.94;;;24.25
64600;BMP280;6553;48.412;9.514;2022-08-21T14:21:35;72134.44;;;24.27
64600;BMP280;6553;48.412;9.514;2022-08-21T14:24:24;72136.19;;;24.26
64600;BMP280;6553;48.412;9.514;2022-08-21T14:26:54;72133.38;;;24.26
64600;BMP280;6553;48.412;9.514;2022-08-21T14:29:26;72134.44;;;24.27
64600;BMP280;6553;48.412;9.514;2022-08-21T14:31:57;72140.56;;;24.28
64600;BMP280;6553;48.412;9.514;2022-08-21T14:34:28;72130.19;;;24.23
64600;BMP280;6553;48.412;9.514;2022-08-21T14:36:55;72134.97;;;24.28
64600;BMP280;6553;48.412;9.514;2022-08-21T14:39:21;72132.31;;;24.25
64600;BMP280;6553;48.412;9.514;2022-08-21T14:41:48;72132.31;;;24.25
64600;BMP280;6553;48.412;9.514;2022-08-21T14:44:16;72131.13;;;24.27
64600;BMP280;6553;48.412;9.514;2022-08-21T14:46:43;72134.97;;;24.28
64600;BMP280;6553;48.412;9.514;2022-08-21T14:49:09;72134.97;;;24.28
64600;BMP280;6553;48.412;9.514;2022-08-21T14:51:35;72137.78;;;24.28
64600;BMP280;6553;48.412;9.514;2022-08-21T14:54:00;72129.00;;;24.25
64600;BMP280;6553;48.412;9.514;2022-08-21T14:56:26;72136.84;;;24.24
64600;BMP280;6553;48.412;9.514;2022-08-21T14:58:53;72140.56;;;24.28
64600;BMP280;6553;48.412;9.514;2022-08-21T15:01:22;72140.56;;;24.28
64600;BMP280;6553;48.412;9.514;2022-08-21T15:03:49;72134.06;;;24.24
64600;BMP280;6553;48.412;9.514;2022-08-21T15:06:15;72137.78;;;24.28
64600;BMP280;6553;48.412;9.514;2022-08-21T15:08:43;72135.09;;;24.25
64600;BMP280;6553;48.412;9.514;2022-08-21T15:11:18;72135.09;;;24.25
64600;BMP280;6553;48.412;9.514;2022-08-21T15:13:45;72133.91;;;24.27
64600;BMP280;6553;48.412;9.514;2022-08-21T15:16:13;72133.91;;;24.27
64600;BMP280;6553;48.412;9.514;2022-08-21T15:18:51;72135.66;;;24.26
64600;BMP280;6553;48.412;9.514;2022-08-21T15:21:20;72131.66;;;24.27
64600;BMP280;6553;48.412;9.514;2022-08-21T15:23:52;72135.66;;;24.26
64600;BMP280;6553;48.412;9.514;2022-08-21T15:26:21;72135.09;;;24.25
64600;BMP280;6553;48.412;9.514;2022-08-21T15:28:48;72135.09;;;24.25
64600;BMP280;6553;48.412;9.514;2022-08-21T15:31:13;72135.09;;;24.25
64600;BMP280;6553;48.412;9.514;2022-08-21T15:33:39;72134.59;;;24.25
64600;BMP280;6553;48.412;9.514;2022-08-21T15:36:05;72136.69;;;24.27
64600;BMP280;6553;48.412;9.514;2022-08-21T15:38:31;72128.47;;;24.24
64600;BMP280;6553;48.412;9.514;2022-08-21T15:40:57;72132.84;;;24.26
64600;BMP280;6553;48.412;9.514;2022-08-21T15:43:33;72137.22;;;24.27
64600;BMP280;6553;48.412;9.514;2022-08-21T15:46:01;72132.31;;;24.25
64600;BMP280;6553;48.412;9.514;2022-08-21T15:48:27;72128.47;;;24.24
64600;BMP280;6553;48.412;9.514;2022-08-21T15:50:54;72134.44;;;24.27
64600;BMP280;6553;48.412;9.514;2022-08-21T15:53:26;72141.09;;;24.28
64600;BMP280;6553;48.412;9.514;2022-08-21T15:55:55;72132.19;;;24.28
64600;BMP280;6553;48.412;9.514;2022-08-21T15:58:22;72132.19;;;24.28
64600;BMP280;6553;48.412;9.514;2022-08-21T16:00:48;72128.88;;;24.27
64600;BMP280;6553;48.412;9.514;2022-08-21T16:03:17;72128.19;;;24.19
64600;BMP280;6553;48.412;9.514;2022-08-21T16:05:48;72130.88;;;24.21
64600;BMP280;6553;48.412;9.514;2022-08-21T16:08:22;72126.88;;;24.23
64600;BMP280;6553;48.412;9.514;2022-08-21T16:10:54;72123.69;;;24.20